Villa Olimpica, Puerto Rico
Current Conditions -  °F | °C
As of 12:56 AM on Thursday 18 Dec 2014 (Local Time) from TJSJ Reporting Station
Scattered Clouds Scattered Clouds  
Wind Chill: 78°   Ceiling: Unl
Heat Index: 80°   Visibility: 10mi
Dew Point: 68°   Wind: 8mph
Humidity: 71%   Direction: 30°NNE
Pressure: 30.02"   Gusts: NA
Location:  18.4051°N, 66.0126°W
Report Text: TJSJ 180456Z 03007KT 10SM SCT031 26/20 A3002 RMK AO2 SLP166 T02560200
Loading
Personal Weather Stations






























Interactive Weather Map New forecast layout! Learn more

10-Day Weather Forecast

Advertisements
Track Severe Weather on mobile